sensor_id;sensor_type;location;lat;lon;timestamp;pressure;altitude;pressure_sealevel;temperature;humidity
42431;BME280;71905;47.466;19.024;2024-01-16T00:02:13;99063.91;;;1.51;100.00
42431;BME280;71905;47.466;19.024;2024-01-16T00:04:41;99078.69;;;1.48;100.00
42431;BME280;71905;47.466;19.024;2024-01-16T00:07:09;99082.94;;;1.54;100.00
42431;BME280;71905;47.466;19.024;2024-01-16T00:09:37;99081.19;;;1.56;100.00
42431;BME280;71905;47.466;19.024;2024-01-16T00:12:06;99089.03;;;1.53;100.00
42431;BME280;71905;47.466;19.024;2024-01-16T00:14:35;99097.72;;;1.54;100.00
42431;BME280;71905;47.466;19.024;2024-01-16T00:17:05;99092.47;;;1.55;100.00
42431;BME280;71905;47.466;19.024;2024-01-16T00:19:34;99082.88;;;1.59;100.00
42431;BME280;71905;47.466;19.024;2024-01-16T00:22:03;99096.88;;;1.50;100.00
42431;BME280;71905;47.466;19.024;2024-01-16T00:24:31;99095.91;;;1.57;100.00
42431;BME280;71905;47.466;19.024;2024-01-16T00:26:59;99099.38;;;1.58;100.00
42431;BME280;71905;47.466;19.024;2024-01-16T00:29:27;99104.63;;;1.55;100.00
42431;BME280;71905;47.466;19.024;2024-01-16T00:31:57;99114.06;;;1.60;100.00
42431;BME280;71905;47.466;19.024;2024-01-16T00:34:25;99109.81;;;1.56;100.00
42431;BME280;71905;47.466;19.024;2024-01-16T00:36:55;99120.25;;;1.55;100.00
42431;BME280;71905;47.466;19.024;2024-01-16T00:39:22;99110.75;;;1.51;100.00
42431;BME280;71905;47.466;19.024;2024-01-16T00:41:51;99112.47;;;1.53;100.00
42431;BME280;71905;47.466;19.024;2024-01-16T00:44:19;99118.56;;;1.49;100.00
42431;BME280;71905;47.466;19.024;2024-01-16T00:46:47;99115.09;;;1.50;100.00
42431;BME280;71905;47.466;19.024;2024-01-16T00:49:15;99122.84;;;1.55;100.00
42431;BME280;71905;47.466;19.024;2024-01-16T00:51:47;99122.94;;;1.48;100.00
42431;BME280;71905;47.466;19.024;2024-01-16T00:54:16;99137.63;;;1.51;100.00
42431;BME280;71905;47.466;19.024;2024-01-16T00:56:44;99138.44;;;1.56;100.00
42431;BME280;71905;47.466;19.024;2024-01-16T00:59:12;99154.94;;;1.54;100.00
42431;BME280;71905;47.466;19.024;2024-01-16T01:01:40;99138.38;;;1.59;100.00
42431;BME280;71905;47.466;19.024;2024-01-16T01:04:09;99153.00;;;1.65;100.00
42431;BME280;71905;47.466;19.024;2024-01-16T01:06:37;99159.03;;;1.70;100.00
42431;BME280;71905;47.466;19.024;2024-01-16T01:09:05;99164.31;;;1.65;100.00
42431;BME280;71905;47.466;19.024;2024-01-16T01:11:35;99166.03;;;1.65;100.00
42431;BME280;71905;47.466;19.024;2024-01-16T01:14:03;99166.00;;;1.68;100.00
42431;BME280;71905;47.466;19.024;2024-01-16T01:16:31;99179.03;;;1.65;100.00
42431;BME280;71905;47.466;19.024;2024-01-16T01:18:59;99182.53;;;1.64;100.00
42431;BME280;71905;47.466;19.024;2024-01-16T01:21:27;99177.34;;;1.62;100.00
42431;BME280;71905;47.466;19.024;2024-01-16T01:23:55;99190.31;;;1.67;100.00
42431;BME280;71905;47.466;19.024;2024-01-16T01:26:23;99206.69;;;1.73;100.00
42431;BME280;71905;47.466;19.024;2024-01-16T01:28:52;99189.38;;;1.71;100.00
42431;BME280;71905;47.466;19.024;2024-01-16T01:31:20;99187.63;;;1.71;100.00
42431;BME280;71905;47.466;19.024;2024-01-16T01:33:48;99189.25;;;1.77;100.00
42431;BME280;71905;47.466;19.024;2024-01-16T01:36:16;99197.94;;;1.79;100.00
42431;BME280;71905;47.466;19.024;2024-01-16T01:38:44;99194.59;;;1.69;100.00
42431;BME280;71905;47.466;19.024;2024-01-16T01:41:13;99194.56;;;1.72;100.00
42431;BME280;71905;47.466;19.024;2024-01-16T01:43:41;99195.38;;;1.74;100.00
42431;BME280;71905;47.466;19.024;2024-01-16T01:46:13;99200.66;;;1.70;100.00
42431;BME280;71905;47.466;19.024;2024-01-16T01:48:43;99186.06;;;1.60;100.00
42431;BME280;71905;47.466;19.024;2024-01-16T01:51:12;99187.78;;;1.61;100.00
42431;BME280;71905;47.466;19.024;2024-01-16T01:53:42;99200.91;;;1.55;100.00
42431;BME280;71905;47.466;19.024;2024-01-16T01:56:14;99208.56;;;1.64;100.00
42431;BME280;71905;47.466;19.024;2024-01-16T01:58:46;99206.13;;;1.52;100.00
42431;BME280;71905;47.466;19.024;2024-01-16T02:01:17;99208.75;;;1.53;100.00
42431;BME280;71905;47.466;19.024;2024-01-16T02:03:47;99212.97;;;1.59;100.00
42431;BME280;71905;47.466;19.024;2024-01-16T02:06:17;99219.19;;;1.48;100.00
42431;BME280;71905;47.466;19.024;2024-01-16T02:08:45;99216.56;;;1.53;100.00
42431;BME280;71905;47.466;19.024;2024-01-16T02:11:14;99225.19;;;1.55;100.00
42431;BME280;71905;47.466;19.024;2024-01-16T02:13:42;99234.69;;;1.58;100.00
42431;BME280;71905;47.466;19.024;2024-01-16T02:16:22;99233.03;;;1.54;100.00
42431;BME280;71905;47.466;19.024;2024-01-16T02:18:53;99238.19;;;1.57;100.00
42431;BME280;71905;47.466;19.024;2024-01-16T02:21:22;99237.41;;;1.48;100.00
42431;BME280;71905;47.466;19.024;2024-01-16T02:23:51;99231.31;;;1.50;100.00
42431;BME280;71905;47.466;19.024;2024-01-16T02:26:20;99248.00;;;1.35;100.00
42431;BME280;71905;47.466;19.024;2024-01-16T02:28:48;99252.28;;;1.40;100.00
42431;BME280;71905;47.466;19.024;2024-01-16T02:31:16;99255.91;;;1.29;100.00
42431;BME280;71905;47.466;19.024;2024-01-16T02:33:44;99255.03;;;1.28;100.00
42431;BME280;71905;47.466;19.024;2024-01-16T02:36:12;99253.34;;;1.24;100.00
42431;BME280;71905;47.466;19.024;2024-01-16T02:38:40;99253.38;;;1.21;100.00
42431;BME280;71905;47.466;19.024;2024-01-16T02:41:15;99258.63;;;1.18;100.00
42431;BME280;71905;47.466;19.024;2024-01-16T02:43:44;99267.25;;;1.22;100.00
42431;BME280;71905;47.466;19.024;2024-01-16T02:46:12;99274.22;;;1.20;100.00
42431;BME280;71905;47.466;19.024;2024-01-16T02:48:40;99280.25;;;1.22;100.00
42431;BME280;71905;47.466;19.024;2024-01-16T02:51:09;99273.38;;;1.17;100.00
42431;BME280;71905;47.466;19.024;2024-01-16T02:53:37;99283.81;;;1.14;100.00
42431;BME280;71905;47.466;19.024;2024-01-16T02:56:06;99275.13;;;1.17;100.00
42431;BME280;71905;47.466;19.024;2024-01-16T02:58:37;99277.72;;;1.17;100.00
42431;BME280;71905;47.466;19.024;2024-01-16T03:01:05;99281.22;;;1.14;100.00
42431;BME280;71905;47.466;19.024;2024-01-16T03:03:34;99281.22;;;1.13;100.00
42431;BME280;71905;47.466;19.024;2024-01-16T03:06:02;99289.00;;;1.16;100.00
42431;BME280;71905;47.466;19.024;2024-01-16T03:08:31;99285.53;;;1.17;100.00
42431;BME280;71905;47.466;19.024;2024-01-16T03:10:59;99292.44;;;1.18;100.00
42431;BME280;71905;47.466;19.024;2024-01-16T03:13:27;99289.97;;;1.07;100.00
42431;BME280;71905;47.466;19.024;2024-01-16T03:15:56;99296.91;;;1.07;100.00
42431;BME280;71905;47.466;19.024;2024-01-16T03:18:25;99293.41;;;1.08;100.00
42431;BME280;71905;47.466;19.024;2024-01-16T03:20:53;99302.13;;;1.05;100.00
42431;BME280;71905;47.466;19.024;2024-01-16T03:23:21;99300.41;;;1.04;100.00
42431;BME280;71905;47.466;19.024;2024-01-16T03:25:49;99303.03;;;1.00;100.00
42431;BME280;71905;47.466;19.024;2024-01-16T03:28:17;99305.66;;;0.97;100.00
42431;BME280;71905;47.466;19.024;2024-01-16T03:30:45;99311.75;;;0.96;100.00
42431;BME280;71905;47.466;19.024;2024-01-16T03:33:15;99317.75;;;1.04;100.00
42431;BME280;71905;47.466;19.024;2024-01-16T03:35:44;99307.31;;;1.05;100.00
42431;BME280;71905;47.466;19.024;2024-01-16T03:38:12;99309.06;;;1.05;100.00
42431;BME280;71905;47.466;19.024;2024-01-16T03:40:40;99319.50;;;0.99;100.00
42431;BME280;71905;47.466;19.024;2024-01-16T03:43:08;99324.72;;;0.99;100.00
42431;BME280;71905;47.466;19.024;2024-01-16T03:45:36;99329.03;;;1.00;100.00
42431;BME280;71905;47.466;19.024;2024-01-16T03:48:04;99331.63;;;1.00;100.00
42431;BME280;71905;47.466;19.024;2024-01-16T03:50:34;99332.59;;;0.93;100.00
42431;BME280;71905;47.466;19.024;2024-01-16T03:53:03;99326.53;;;0.92;100.00
42431;BME280;71905;47.466;19.024;2024-01-16T03:55:31;99336.94;;;0.87;100.00
42431;BME280;71905;47.466;19.024;2024-01-16T03:57:59;99335.22;;;0.90;100.00
42431;BME280;71905;47.466;19.024;2024-01-16T04:00:27;99336.06;;;0.88;100.00
42431;BME280;71905;47.466;19.024;2024-01-16T04:02:55;99335.22;;;0.90;100.00
42431;BME280;71905;47.466;19.024;2024-01-16T04:05:24;99336.94;;;0.87;100.00
42431;BME280;71905;47.466;19.024;2024-01-16T04:07:53;99337.75;;;0.94;100.00
42431;BME280;71905;47.466;19.024;2024-01-16T04:10:21;99338.63;;;0.95;100.00
42431;BME280;71905;47.466;19.024;2024-01-16T04:12:49;99348.19;;;0.93;100.00
42431;BME280;71905;47.466;19.024;2024-01-16T04:15:18;99350.81;;;0.91;100.00
42431;BME280;71905;47.466;19.024;2024-01-16T04:17:49;99349.06;;;0.88;100.00
42431;BME280;71905;47.466;19.024;2024-01-16T04:20:17;99349.06;;;0.92;100.00
42431;BME280;71905;47.466;19.024;2024-01-16T04:22:45;99364.69;;;0.90;100.00
42431;BME280;71905;47.466;19.024;2024-01-16T04:25:15;99373.34;;;0.91;100.00
42431;BME280;71905;47.466;19.024;2024-01-16T04:27:42;99375.94;;;0.89;100.00
42431;BME280;71905;47.466;19.024;2024-01-16T04:30:12;99380.25;;;0.92;100.00
42431;BME280;71905;47.466;19.024;2024-01-16T04:32:40;99377.59;;;0.96;100.00
42431;BME280;71905;47.466;19.024;2024-01-16T04:35:09;99380.19;;;0.96;100.00
42431;BME280;71905;47.466;19.024;2024-01-16T04:37:37;99398.44;;;0.92;100.00
42431;BME280;71905;47.466;19.024;2024-01-16T04:40:06;99391.56;;;0.86;100.00
42431;BME280;71905;47.466;19.024;2024-01-16T04:42:35;99401.06;;;0.92;100.00
42431;BME280;71905;47.466;19.024;2024-01-16T04:45:04;99401.06;;;0.90;100.00
42431;BME280;71905;47.466;19.024;2024-01-16T04:47:32;99406.19;;;0.96;100.00
42431;BME280;71905;47.466;19.024;2024-01-16T04:50:00;99413.97;;;0.99;100.00
42431;BME280;71905;47.466;19.024;2024-01-16T04:52:28;99415.75;;;0.96;100.00
42431;BME280;71905;47.466;19.024;2024-01-16T04:54:56;99427.84;;;0.97;100.00
42431;BME280;71905;47.466;19.024;2024-01-16T04:57:24;99412.28;;;0.95;100.00
42431;BME280;71905;47.466;19.024;2024-01-16T04:59:54;99425.28;;;0.95;100.00
42431;BME280;71905;47.466;19.024;2024-01-16T05:02:22;99423.50;;;0.99;100.00
42431;BME280;71905;47.466;19.024;2024-01-16T05:04:50;99435.63;;;1.00;100.00
42431;BME280;71905;47.466;19.024;2024-01-16T05:07:18;99431.28;;;1.00;100.00
42431;BME280;71905;47.466;19.024;2024-01-16T05:09:47;99423.53;;;0.96;100.00
42431;BME280;71905;47.466;19.024;2024-01-16T05:12:16;99437.44;;;0.92;100.00
42431;BME280;71905;47.466;19.024;2024-01-16T05:14:46;99432.25;;;0.92;100.00
42431;BME280;71905;47.466;19.024;2024-01-16T05:17:16;99436.53;;;0.96;100.00
42431;BME280;71905;47.466;19.024;2024-01-16T05:19:44;99454.75;;;0.94;100.00
42431;BME280;71905;47.466;19.024;2024-01-16T05:22:12;99454.81;;;0.90;100.00
42431;BME280;71905;47.466;19.024;2024-01-16T05:24:40;99451.31;;;0.87;100.00
42431;BME280;71905;47.466;19.024;2024-01-16T05:27:08;99453.03;;;0.88;100.00
42431;BME280;71905;47.466;19.024;2024-01-16T05:29:36;99473.81;;;0.95;100.00
42431;BME280;71905;47.466;19.024;2024-01-16T05:32:09;99474.72;;;0.87;100.00
42431;BME280;71905;47.466;19.024;2024-01-16T05:34:39;99479.94;;;0.86;100.00
42431;BME280;71905;47.466;19.024;2024-01-16T05:37:07;99472.13;;;0.86;100.00
42431;BME280;71905;47.466;19.024;2024-01-16T05:39:36;99479.97;;;0.81;100.00
42431;BME280;71905;47.466;19.024;2024-01-16T05:42:04;99491.22;;;0.83;100.00
42431;BME280;71905;47.466;19.024;2024-01-16T05:44:32;99492.94;;;0.84;100.00
42431;BME280;71905;47.466;19.024;2024-01-16T05:47:01;99494.72;;;0.81;100.00
42431;BME280;71905;47.466;19.024;2024-01-16T05:49:29;99498.09;;;0.92;100.00
42431;BME280;71905;47.466;19.024;2024-01-16T05:51:59;99500.72;;;0.89;100.00
42431;BME280;71905;47.466;19.024;2024-01-16T05:54:27;99492.97;;;0.83;100.00
42431;BME280;71905;47.466;19.024;2024-01-16T05:56:55;99502.56;;;0.76;100.00
42431;BME280;71905;47.466;19.024;2024-01-16T05:59:23;99507.75;;;0.72;100.00
42431;BME280;71905;47.466;19.024;2024-01-16T06:01:51;99512.94;;;0.75;100.00
42431;BME280;71905;47.466;19.024;2024-01-16T06:04:19;99519.88;;;0.74;100.00
42431;BME280;71905;47.466;19.024;2024-01-16T06:06:47;99507.75;;;0.73;100.00
42431;BME280;71905;47.466;19.024;2024-01-16T06:09:17;99532.00;;;0.75;100.00
42431;BME280;71905;47.466;19.024;2024-01-16T06:11:45;99538.03;;;0.76;100.00
42431;BME280;71905;47.466;19.024;2024-01-16T06:14:14;99535.44;;;0.79;100.00
42431;BME280;71905;47.466;19.024;2024-01-16T06:16:48;99545.00;;;0.77;100.00
42431;BME280;71905;47.466;19.024;2024-01-16T06:19:17;99542.34;;;0.83;100.00
42431;BME280;71905;47.466;19.024;2024-01-16T06:21:45;99545.00;;;0.72;100.00
42431;BME280;71905;47.466;19.024;2024-01-16T06:24:13;99551.09;;;0.68;100.00
42431;BME280;71905;47.466;19.024;2024-01-16T06:26:43;99558.94;;;0.64;100.00
42431;BME280;71905;47.466;19.024;2024-01-16T06:29:11;99560.66;;;0.63;100.00
42431;BME280;71905;47.466;19.024;2024-01-16T06:31:53;99564.97;;;0.67;100.00
42431;BME280;71905;47.466;19.024;2024-01-16T06:34:21;99562.31;;;0.75;100.00
42431;BME280;71905;47.466;19.024;2024-01-16T06:36:49;99564.13;;;0.62;100.00
42431;BME280;71905;47.466;19.024;2024-01-16T06:39:17;99569.34;;;0.59;100.00
42431;BME280;71905;47.466;19.024;2024-01-16T06:41:47;99565.88;;;0.58;100.00
42431;BME280;71905;47.466;19.024;2024-01-16T06:44:15;99565.88;;;0.58;100.00
42431;BME280;71905;47.466;19.024;2024-01-16T06:46:43;99577.97;;;0.66;100.00
42431;BME280;71905;47.466;19.024;2024-01-16T06:49:11;99584.91;;;0.67;100.00
42431;BME280;71905;47.466;19.024;2024-01-16T06:51:39;99590.09;;;0.65;100.00
42431;BME280;71905;47.466;19.024;2024-01-16T06:54:07;99597.91;;;0.59;100.00
42431;BME280;71905;47.466;19.024;2024-01-16T06:56:35;99592.66;;;0.71;100.00
42431;BME280;71905;47.466;19.024;2024-01-16T06:59:05;99618.66;;;0.71;100.00
42431;BME280;71905;47.466;19.024;2024-01-16T07:01:37;99605.66;;;0.70;100.00
42431;BME280;71905;47.466;19.024;2024-01-16T07:04:05;99603.03;;;0.74;100.00
42431;BME280;71905;47.466;19.024;2024-01-16T07:06:33;99602.19;;;0.72;100.00
42431;BME280;71905;47.466;19.024;2024-01-16T07:09:01;99618.63;;;0.74;100.00
42431;BME280;71905;47.466;19.024;2024-01-16T07:11:32;99616.88;;;0.79;100.00
42431;BME280;71905;47.466;19.024;2024-01-16T07:14:00;99621.16;;;0.88;100.00
42431;BME280;71905;47.466;19.024;2024-01-16T07:16:29;99642.75;;;1.04;100.00
42431;BME280;71905;47.466;19.024;2024-01-16T07:18:57;99643.69;;;0.91;100.00
42431;BME280;71905;47.466;19.024;2024-01-16T07:21:25;99629.81;;;0.95;100.00
42431;BME280;71905;47.466;19.024;2024-01-16T07:23:53;99638.44;;;1.00;100.00
42431;BME280;71905;47.466;19.024;2024-01-16T07:26:21;99654.00;;;1.06;100.00
42431;BME280;71905;47.466;19.024;2024-01-16T07:28:50;99652.28;;;1.06;100.00
42431;BME280;71905;47.466;19.024;2024-01-16T07:31:18;99654.00;;;1.09;100.00
42431;BME280;71905;47.466;19.024;2024-01-16T07:33:47;99658.31;;;1.10;100.00
42431;BME280;71905;47.466;19.024;2024-01-16T07:36:15;99668.66;;;1.22;100.00
42431;BME280;71905;47.466;19.024;2024-01-16T07:38:43;99666.88;;;1.32;100.00
42431;BME280;71905;47.466;19.024;2024-01-16T07:41:12;99658.22;;;1.30;100.00
42431;BME280;71905;47.466;19.024;2024-01-16T07:43:40;99668.59;;;1.31;100.00
42431;BME280;71905;47.466;19.024;2024-01-16T07:46:08;99681.59;;;1.34;100.00
42431;BME280;71905;47.466;19.024;2024-01-16T07:48:36;99678.13;;;1.32;100.00
42431;BME280;71905;47.466;19.024;2024-01-16T07:51:05;99695.44;;;1.41;100.00
42431;BME280;71905;47.466;19.024;2024-01-16T07:53:33;99691.09;;;1.38;100.00
42431;BME280;71905;47.466;19.024;2024-01-16T07:56:02;99698.88;;;1.43;100.00
42431;BME280;71905;47.466;19.024;2024-01-16T07:58:30;99704.09;;;1.38;100.00
42431;BME280;71905;47.466;19.024;2024-01-16T08:00:58;99705.81;;;1.39;100.00
42431;BME280;71905;47.466;19.024;2024-01-16T08:03:26;99704.09;;;1.43;100.00
42431;BME280;71905;47.466;19.024;2024-01-16T08:05:54;99705.75;;;1.52;100.00
42431;BME280;71905;47.466;19.024;2024-01-16T08:08:24;99711.81;;;1.58;100.00
42431;BME280;71905;47.466;19.024;2024-01-16T08:10:52;99711.81;;;1.52;100.00
42431;BME280;71905;47.466;19.024;2024-01-16T08:13:20;99716.13;;;1.58;100.00
42431;BME280;71905;47.466;19.024;2024-01-16T08:15:48;99725.63;;;1.65;100.00
42431;BME280;71905;47.466;19.024;2024-01-16T08:18:16;99726.50;;;1.68;100.00
42431;BME280;71905;47.466;19.024;2024-01-16T08:20:44;99726.50;;;1.67;100.00
42431;BME280;71905;47.466;19.024;2024-01-16T08:23:12;99735.09;;;1.80;100.00
42431;BME280;71905;47.466;19.024;2024-01-16T08:25:42;99737.69;;;1.76;100.00
42431;BME280;71905;47.466;19.024;2024-01-16T08:28:11;99733.31;;;1.85;100.00
42431;BME280;71905;47.466;19.024;2024-01-16T08:30:39;99741.06;;;1.92;100.00
42431;BME280;71905;47.466;19.024;2024-01-16T08:33:07;99738.38;;;2.03;100.00
42431;BME280;71905;47.466;19.024;2024-01-16T08:35:35;99745.28;;;2.07;100.00
42431;BME280;71905;47.466;19.024;2024-01-16T08:38:04;99743.53;;;2.11;100.00
42431;BME280;71905;47.466;19.024;2024-01-16T08:40:32;99761.75;;;2.11;100.00
42431;BME280;71905;47.466;19.024;2024-01-16T08:43:01;99759.19;;;2.08;100.00
42431;BME280;71905;47.466;19.024;2024-01-16T08:45:30;99751.31;;;2.14;99.96
42431;BME280;71905;47.466;19.024;2024-01-16T08:47:58;99750.41;;;2.19;99.86
42431;BME280;71905;47.466;19.024;2024-01-16T08:50:28;99752.09;;;2.25;99.22
42431;BME280;71905;47.466;19.024;2024-01-16T08:52:57;99741.66;;;2.29;97.42
42431;BME280;71905;47.466;19.024;2024-01-16T08:55:25;99753.88;;;2.20;95.91
42431;BME280;71905;47.466;19.024;2024-01-16T08:57:52;99754.69;;;2.25;93.43
42431;BME280;71905;47.466;19.024;2024-01-16T09:00:22;99758.09;;;2.33;90.29
42431;BME280;71905;47.466;19.024;2024-01-16T09:02:50;99768.56;;;2.30;91.63
42431;BME280;71905;47.466;19.024;2024-01-16T09:05:18;99768.50;;;2.34;90.21
42431;BME280;71905;47.466;19.024;2024-01-16T09:07:48;99768.50;;;2.34;90.01
42431;BME280;71905;47.466;19.024;2024-01-16T09:10:16;99771.06;;;2.39;88.67
42431;BME280;71905;47.466;19.024;2024-01-16T09:12:44;99780.72;;;2.31;88.97
42431;BME280;71905;47.466;19.024;2024-01-16T09:15:13;99774.56;;;2.36;88.75
42431;BME280;71905;47.466;19.024;2024-01-16T09:17:42;99773.66;;;2.41;89.06
42431;BME280;71905;47.466;19.024;2024-01-16T09:20:11;99773.66;;;2.39;88.30
42431;BME280;71905;47.466;19.024;2024-01-16T09:22:39;99772.81;;;2.42;86.45
42431;BME280;71905;47.466;19.024;2024-01-16T09:25:07;99779.72;;;2.44;85.32
42431;BME280;71905;47.466;19.024;2024-01-16T09:27:36;99773.66;;;2.44;84.87
42431;BME280;71905;47.466;19.024;2024-01-16T09:30:04;99773.63;;;2.45;83.54
42431;BME280;71905;47.466;19.024;2024-01-16T09:32:34;99777.91;;;2.51;81.21
42431;BME280;71905;47.466;19.024;2024-01-16T09:35:04;99771.00;;;2.47;81.78
42431;BME280;71905;47.466;19.024;2024-01-16T09:37:34;99776.97;;;2.61;79.54
42431;BME280;71905;47.466;19.024;2024-01-16T09:40:03;99780.41;;;2.63;78.40
42431;BME280;71905;47.466;19.024;2024-01-16T09:42:32;99770.91;;;2.59;79.28
42431;BME280;71905;47.466;19.024;2024-01-16T09:45:00;99774.25;;;2.72;78.81
42431;BME280;71905;47.466;19.024;2024-01-16T09:47:30;99781.13;;;2.77;77.57
42431;BME280;71905;47.466;19.024;2024-01-16T09:49:59;99769.78;;;2.84;76.15
42431;BME280;71905;47.466;19.024;2024-01-16T09:52:30;99776.69;;;2.87;75.15
42431;BME280;71905;47.466;19.024;2024-01-16T09:54:58;99783.50;;;3.00;74.18
42431;BME280;71905;47.466;19.024;2024-01-16T09:57:27;99775.78;;;2.89;75.39
42431;BME280;71905;47.466;19.024;2024-01-16T09:59:56;99787.72;;;3.12;74.41
42431;BME280;71905;47.466;19.024;2024-01-16T10:02:25;99775.59;;;3.09;73.71
42431;BME280;71905;47.466;19.024;2024-01-16T10:04:53;99783.31;;;3.18;72.59
42431;BME280;71905;47.466;19.024;2024-01-16T10:07:23;99780.72;;;3.15;71.92
42431;BME280;71905;47.466;19.024;2024-01-16T10:09:57;99785.78;;;3.31;73.40
42431;BME280;71905;47.466;19.024;2024-01-16T10:12:25;99768.44;;;3.23;70.85
42431;BME280;71905;47.466;19.024;2024-01-16T10:14:55;99777.16;;;3.24;70.16
42431;BME280;71905;47.466;19.024;2024-01-16T10:17:35;99784.91;;;3.29;69.75
42431;BME280;71905;47.466;19.024;2024-01-16T10:20:04;99780.41;;;3.41;71.15
42431;BME280;71905;47.466;19.024;2024-01-16T10:22:32;99781.22;;;3.46;68.25
42431;BME280;71905;47.466;19.024;2024-01-16T10:25:06;99782.91;;;3.49;68.17
42431;BME280;71905;47.466;19.024;2024-01-16T10:27:35;99795.25;;;3.38;69.36
42431;BME280;71905;47.466;19.024;2024-01-16T10:30:05;99790.69;;;3.53;68.52
42431;BME280;71905;47.466;19.024;2024-01-16T10:32:35;99788.19;;;3.43;67.66
42431;BME280;71905;47.466;19.024;2024-01-16T10:35:06;99789.78;;;3.54;67.27
42431;BME280;71905;47.466;19.024;2024-01-16T10:37:41;99787.19;;;3.54;67.17
42431;BME280;71905;47.466;19.024;2024-01-16T10:40:14;99788.19;;;3.46;66.93
42431;BME280;71905;47.466;19.024;2024-01-16T10:42:43;99792.56;;;3.42;65.83
42431;BME280;71905;47.466;19.024;2024-01-16T10:45:16;99776.00;;;3.46;66.53
42431;BME280;71905;47.466;19.024;2024-01-16T10:47:45;99779.41;;;3.51;66.20
42431;BME280;71905;47.466;19.024;2024-01-16T10:50:17;99791.63;;;3.49;65.76
42431;BME280;71905;47.466;19.024;2024-01-16T10:52:54;99784.56;;;3.54;65.79
42431;BME280;71905;47.466;19.024;2024-01-16T10:55:49;99780.16;;;3.61;66.52
42431;BME280;71905;47.466;19.024;2024-01-16T10:58:41;99780.88;;;3.72;67.20
42431;BME280;71905;47.466;19.024;2024-01-16T11:01:11;99767.59;;;3.86;66.88
42431;BME280;71905;47.466;19.024;2024-01-16T11:03:42;99777.94;;;3.92;66.73
42431;BME280;71905;47.466;19.024;2024-01-16T11:06:17;99777.78;;;4.04;67.38
42431;BME280;71905;47.466;19.024;2024-01-16T11:08:47;99775.84;;;4.16;67.11
42431;BME280;71905;47.466;19.024;2024-01-16T11:11:17;99781.09;;;4.16;65.85
42431;BME280;71905;47.466;19.024;2024-01-16T11:13:45;99768.75;;;4.24;65.20
42431;BME280;71905;47.466;19.024;2024-01-16T11:16:14;99775.53;;;4.37;64.84
42431;BME280;71905;47.466;19.024;2024-01-16T11:18:42;99774.66;;;4.36;65.19
42431;BME280;71905;47.466;19.024;2024-01-16T11:21:12;99766.88;;;4.32;64.36
42431;BME280;71905;47.466;19.024;2024-01-16T11:23:44;99773.19;;;4.20;64.07
42431;BME280;71905;47.466;19.024;2024-01-16T11:26:26;99780.44;;;4.01;63.73
42431;BME280;71905;47.466;19.024;2024-01-16T11:28:56;99764.03;;;3.92;64.21
42431;BME280;71905;47.466;19.024;2024-01-16T11:31:32;99774.34;;;4.01;63.94
42431;BME280;71905;47.466;19.024;2024-01-16T11:34:02;99778.78;;;3.96;63.21
42431;BME280;71905;47.466;19.024;2024-01-16T11:36:49;99769.91;;;4.07;63.73
42431;BME280;71905;47.466;19.024;2024-01-16T11:39:22;99763.72;;;4.11;62.32
42431;BME280;71905;47.466;19.024;2024-01-16T11:41:54;99763.69;;;4.14;62.31
42431;BME280;71905;47.466;19.024;2024-01-16T11:44:42;99775.84;;;4.16;62.21
42431;BME280;71905;47.466;19.024;2024-01-16T11:47:16;99768.00;;;4.17;61.82
42431;BME280;71905;47.466;19.024;2024-01-16T11:49:45;99765.31;;;4.22;61.22
42431;BME280;71905;47.466;19.024;2024-01-16T11:52:14;99767.63;;;4.40;61.62
42431;BME280;71905;47.466;19.024;2024-01-16T11:54:42;99763.13;;;4.48;60.39
42431;BME280;71905;47.466;19.024;2024-01-16T11:57:31;99778.47;;;4.66;59.05
42431;BME280;71905;47.466;19.024;2024-01-16T12:00:04;99755.16;;;4.54;57.88
42431;BME280;71905;47.466;19.024;2024-01-16T12:02:49;99769.91;;;4.60;57.72
42431;BME280;71905;47.466;19.024;2024-01-16T12:05:20;99758.19;;;4.79;57.21
42431;BME280;71905;47.466;19.024;2024-01-16T12:07:49;99757.09;;;4.91;55.94
42431;BME280;71905;47.466;19.024;2024-01-16T12:10:20;99764.00;;;4.96;54.39
42431;BME280;71905;47.466;19.024;2024-01-16T12:12:51;99753.03;;;5.19;53.39
42431;BME280;71905;47.466;19.024;2024-01-16T12:15:20;99758.53;;;5.07;52.33
42431;BME280;71905;47.466;19.024;2024-01-16T12:17:53;99764.59;;;5.11;52.35
42431;BME280;71905;47.466;19.024;2024-01-16T12:20:21;99769.66;;;5.18;51.96
42431;BME280;71905;47.466;19.024;2024-01-16T12:22:54;99762.22;;;5.40;51.41
42431;BME280;71905;47.466;19.024;2024-01-16T12:25:22;99758.38;;;5.56;51.40
42431;BME280;71905;47.466;19.024;2024-01-16T12:28:12;99763.50;;;5.63;50.98
42431;BME280;71905;47.466;19.024;2024-01-16T12:30:58;99765.09;;;6.08;50.07
42431;BME280;71905;47.466;19.024;2024-01-16T12:33:27;99771.22;;;6.07;49.16
42431;BME280;71905;47.466;19.024;2024-01-16T12:36:01;99767.69;;;6.10;48.57
42431;BME280;71905;47.466;19.024;2024-01-16T12:38:29;99765.56;;;6.26;48.15
42431;BME280;71905;47.466;19.024;2024-01-16T12:40:58;99759.63;;;6.53;48.00
42431;BME280;71905;47.466;19.024;2024-01-16T12:43:31;99766.81;;;6.45;47.20
42431;BME280;71905;47.466;19.024;2024-01-16T12:45:59;99768.03;;;5.95;47.67
42431;BME280;71905;47.466;19.024;2024-01-16T12:48:28;99760.03;;;6.01;48.04
42431;BME280;71905;47.466;19.024;2024-01-16T12:50:59;99768.06;;;5.53;48.51
42431;BME280;71905;47.466;19.024;2024-01-16T12:53:29;99763.63;;;5.56;47.62
42431;BME280;71905;47.466;19.024;2024-01-16T12:55:59;99769.69;;;5.17;47.71
42431;BME280;71905;47.466;19.024;2024-01-16T12:58:33;99773.34;;;5.10;48.05
42431;BME280;71905;47.466;19.024;2024-01-16T13:01:24;99774.88;;;4.73;48.38
42431;BME280;71905;47.466;19.024;2024-01-16T13:03:55;99773.25;;;4.66;48.79
42431;BME280;71905;47.466;19.024;2024-01-16T13:06:23;99767.28;;;4.60;48.52